createdAt,value
2023-04-18T00:01:28.883Z,18.60
2023-04-18T00:04:34.049Z,15.98
2023-04-18T00:07:38.097Z,16.50
2023-04-18T00:10:40.656Z,16.80
2023-04-18T00:13:43.212Z,14.87
2023-04-18T00:16:46.271Z,16.97
2023-04-18T00:19:48.905Z,14.40
2023-04-18T00:22:53.270Z,17.37
2023-04-18T00:25:55.762Z,16.60
2023-04-18T00:28:58.377Z,16.83
2023-04-18T00:32:00.915Z,16.53
2023-04-18T00:35:04.122Z,16.03
2023-04-18T00:38:07.951Z,16.25
2023-04-18T00:41:10.449Z,19.77
2023-04-18T00:44:13.146Z,20.87
2023-04-18T00:47:16.785Z,16.95
2023-04-18T00:50:19.879Z,17.10
2023-04-18T00:53:23.995Z,17.02
2023-04-18T00:56:26.773Z,16.23
2023-04-18T00:59:29.288Z,19.42
2023-04-18T01:02:32.023Z,17.03
2023-04-18T01:05:35.082Z,15.25
2023-04-18T01:08:39.059Z,16.48
2023-04-18T01:11:41.689Z,15.30
2023-04-18T01:14:44.285Z,22.57
2023-04-18T01:17:47.279Z,15.57
2023-04-18T01:20:51.346Z,15.02
2023-04-18T01:23:55.367Z,18.07
2023-04-18T01:26:59.700Z,17.57
2023-04-18T01:30:02.299Z,17.03
2023-04-18T01:33:05.891Z,17.57
2023-04-18T01:39:11.011Z,14.23
2023-04-18T01:42:14.995Z,15.13
2023-04-18T01:45:18.134Z,16.13
2023-04-18T01:48:20.659Z,17.77
2023-04-18T01:51:23.476Z,14.53
2023-04-18T01:54:26.015Z,13.90
2023-04-18T01:57:29.903Z,14.50
2023-04-18T02:00:32.439Z,15.27
2023-04-18T02:03:35.135Z,16.53
2023-04-18T02:06:37.839Z,15.98
2023-04-18T02:09:40.400Z,16.33
2023-04-18T02:12:44.297Z,17.20
2023-04-18T02:15:47.020Z,17.43
2023-04-18T02:18:52.417Z,16.65
2023-04-18T02:21:55.489Z,16.77
2023-04-18T02:24:58.054Z,17.63
2023-04-18T02:28:02.005Z,15.47
2023-04-18T02:31:04.514Z,16.77
2023-04-18T02:34:07.488Z,18.27
2023-04-18T02:37:10.053Z,18.70
2023-04-18T02:40:13.976Z,19.23
2023-04-18T02:43:17.835Z,17.30
2023-04-18T02:46:20.397Z,16.87
2023-04-18T02:49:23.050Z,16.50
2023-04-18T02:52:26.132Z,16.33
2023-04-18T02:55:28.717Z,15.68
2023-04-18T02:58:34.693Z,16.00
2023-04-18T03:01:37.452Z,18.07
2023-04-18T03:04:40.158Z,15.70
2023-04-18T03:07:42.738Z,17.57
2023-04-18T03:10:45.327Z,16.77
2023-04-18T03:13:49.254Z,16.13
2023-04-18T03:16:54.599Z,17.87
2023-04-18T03:19:57.845Z,14.57
2023-04-18T03:23:00.840Z,17.07
2023-04-18T03:26:03.327Z,17.85
2023-04-18T03:29:07.296Z,14.70
2023-04-18T03:32:09.816Z,17.60
2023-04-18T03:35:12.611Z,13.40
2023-04-18T03:38:15.266Z,14.38
2023-04-18T03:41:17.719Z,15.07
2023-04-18T03:44:21.607Z,16.87
2023-04-18T03:47:24.164Z,16.70
2023-04-18T03:50:26.855Z,15.43
2023-04-18T03:53:30.071Z,14.20
2023-04-18T03:56:33.109Z,17.40
2023-04-18T03:59:37.244Z,15.23
2023-04-18T04:02:39.961Z,16.33
2023-04-18T04:05:42.687Z,17.73
2023-04-18T04:08:45.259Z,16.93
2023-04-18T04:11:48.453Z,15.50
2023-04-18T04:14:52.396Z,17.30
2023-04-18T04:17:54.993Z,19.77
2023-04-18T04:20:57.994Z,16.00
2023-04-18T04:24:01.376Z,21.45
2023-04-18T04:27:04.141Z,14.38
2023-04-18T04:30:11.850Z,15.55
2023-04-18T04:33:15.782Z,14.00
2023-04-18T04:36:19.193Z,15.43
2023-04-18T04:39:24.617Z,15.15
2023-04-18T04:42:28.544Z,16.87
2023-04-18T04:45:33.104Z,15.93
2023-04-18T04:48:35.788Z,12.70
2023-04-18T04:51:38.417Z,17.53
2023-04-18T04:54:41.045Z,18.43
2023-04-18T04:57:44.712Z,16.87
2023-04-18T05:03:53.626Z,17.13
2023-04-18T05:06:56.516Z,15.73
2023-04-18T05:09:59.305Z,16.93
2023-04-18T05:13:02.073Z,20.23
2023-04-18T05:16:06.756Z,15.73
2023-04-18T05:19:09.408Z,15.70
2023-04-18T05:22:12.110Z,15.60
2023-04-18T05:25:14.713Z,19.33
2023-04-18T05:28:17.328Z,14.27
2023-04-18T05:31:21.778Z,15.10
2023-04-18T05:34:24.630Z,18.33
2023-04-18T05:37:27.171Z,15.75
2023-04-18T05:40:30.394Z,16.73
2023-04-18T05:43:33.079Z,18.45
2023-04-18T05:46:37.115Z,16.93
2023-04-18T05:49:39.791Z,18.63
2023-04-18T05:52:42.535Z,15.33
2023-04-18T05:55:46.639Z,17.75
2023-04-18T05:58:51.216Z,17.43
2023-04-18T06:01:55.447Z,16.43
2023-04-18T06:04:58.445Z,22.00
2023-04-18T06:08:01.181Z,17.85
2023-04-18T06:11:04.267Z,16.63
2023-04-18T06:14:07.939Z,19.90
2023-04-18T06:20:15.356Z,15.83
2023-04-18T06:23:17.948Z,16.15
2023-04-18T06:26:20.796Z,18.40
2023-04-18T06:29:23.385Z,17.13
2023-04-18T06:32:27.642Z,15.73
2023-04-18T06:35:32.027Z,14.97
2023-04-18T06:38:34.720Z,16.00
2023-04-18T06:41:37.421Z,15.52
2023-04-18T06:44:40.094Z,14.93
2023-04-18T06:47:44.191Z,18.70
2023-04-18T06:50:46.967Z,20.13
2023-04-18T06:53:52.704Z,16.77
2023-04-18T06:56:55.922Z,17.37
2023-04-18T06:59:58.506Z,15.98
2023-04-18T07:03:06.577Z,16.87
2023-04-18T07:06:10.978Z,18.10
2023-04-18T07:09:13.708Z,14.93
2023-04-18T07:12:16.374Z,30.80
2023-04-18T07:15:19.312Z,18.00
2023-04-18T07:18:34.259Z,18.63
2023-04-18T07:21:43.066Z,18.50
2023-04-18T07:24:45.714Z,14.67
2023-04-18T07:27:48.512Z,15.60
2023-04-18T07:30:51.451Z,17.85
2023-04-18T07:33:56.217Z,16.40
2023-04-18T07:36:58.791Z,13.80
2023-04-18T07:40:01.323Z,13.40
2023-04-18T07:43:03.896Z,17.00
2023-04-18T07:46:07.222Z,18.87
2023-04-18T07:49:11.313Z,13.80
2023-04-18T07:52:14.285Z,17.73
2023-04-18T07:55:17.112Z,15.05
2023-04-18T07:58:19.741Z,13.60
2023-04-18T08:01:24.305Z,14.07
2023-04-18T08:04:30.079Z,14.13
2023-04-18T08:07:33.281Z,16.73
2023-04-18T08:10:35.912Z,14.03
2023-04-18T08:13:38.776Z,11.87
2023-04-18T08:16:41.512Z,15.63
2023-04-18T08:19:46.268Z,17.52
2023-04-18T08:23:05.110Z,13.47
2023-04-18T08:26:09.400Z,14.67
2023-04-18T08:29:12.328Z,16.00
2023-04-18T08:32:15.162Z,14.80
2023-04-18T08:35:19.244Z,15.37
2023-04-18T08:38:21.943Z,13.10
2023-04-18T08:41:24.804Z,12.68
2023-04-18T08:44:28.671Z,13.18
2023-04-18T08:47:31.687Z,16.47
2023-04-18T08:50:36.231Z,13.93
2023-04-18T08:53:39.354Z,15.07
2023-04-18T08:56:42.246Z,13.23
2023-04-18T08:59:48.356Z,13.20
2023-04-18T09:02:56.532Z,13.93
2023-04-18T09:06:13.988Z,14.70
2023-04-18T09:09:16.608Z,17.77
2023-04-18T09:12:23.249Z,15.80
2023-04-18T09:15:29.124Z,12.77
2023-04-18T09:18:32.475Z,16.00
2023-04-18T09:21:38.369Z,16.20
2023-04-18T09:24:49.095Z,13.10
2023-04-18T09:27:51.951Z,14.67
2023-04-18T09:30:56.092Z,14.75
2023-04-18T09:34:00.617Z,13.27
2023-04-18T09:37:09.165Z,17.43
2023-04-18T09:40:19.046Z,15.53
2023-04-18T09:43:22.486Z,15.53
2023-04-18T09:46:25.387Z,15.27
2023-04-18T09:49:28.424Z,14.15
2023-04-18T09:52:35.973Z,13.95
2023-04-18T09:55:40.075Z,17.47
2023-04-18T09:58:43.132Z,14.53
2023-04-18T10:01:48.340Z,13.20
2023-04-18T10:04:52.205Z,15.03
2023-04-18T10:07:56.597Z,15.63
2023-04-18T10:10:59.475Z,14.70
2023-04-18T10:14:04.684Z,12.65
2023-04-18T10:17:07.398Z,11.60
2023-04-18T10:20:11.282Z,12.43
2023-04-18T10:23:37.294Z,11.83
2023-04-18T10:26:47.517Z,11.43
2023-04-18T10:29:52.006Z,11.33
2023-04-18T10:32:56.377Z,17.47
2023-04-18T10:36:00.689Z,9.97
2023-04-18T10:39:22.375Z,10.63
2023-04-18T10:42:58.594Z,9.00
2023-04-18T10:46:23.965Z,9.87
2023-04-18T10:49:33.400Z,8.57
2023-04-18T10:52:36.105Z,12.23
2023-04-18T10:55:45.092Z,10.77
2023-04-18T10:58:51.494Z,8.63
2023-04-18T11:01:57.811Z,7.67
2023-04-18T11:05:02.825Z,8.63
2023-04-18T11:08:06.341Z,8.97
2023-04-18T11:11:11.353Z,9.50
2023-04-18T11:14:14.299Z,8.00
2023-04-18T11:17:20.996Z,10.30
2023-04-18T11:20:23.859Z,8.70
2023-04-18T11:23:26.574Z,6.13
2023-04-18T11:26:30.741Z,10.20
2023-04-18T11:29:33.574Z,8.03
2023-04-18T11:32:36.446Z,8.63
2023-04-18T11:35:39.922Z,8.00
2023-04-18T11:38:42.688Z,6.22
2023-04-18T11:41:50.447Z,6.85
2023-04-18T11:44:53.163Z,7.07
2023-04-18T11:47:58.141Z,8.88
2023-04-18T11:51:01.106Z,6.43
2023-04-18T11:54:04.049Z,6.72
2023-04-18T11:57:19.735Z,7.57
2023-04-18T12:00:33.554Z,8.47
2023-04-18T12:03:36.852Z,7.87
2023-04-18T12:09:53.468Z,6.27
2023-04-18T12:12:59.768Z,9.33
2023-04-18T12:16:03.461Z,6.43
2023-04-18T12:19:11.248Z,6.27
2023-04-18T12:22:16.890Z,7.30
2023-04-18T12:25:26.253Z,8.37
2023-04-18T12:28:32.361Z,6.43
2023-04-18T12:31:35.028Z,5.90
2023-04-18T12:34:37.750Z,10.55
2023-04-18T12:37:40.740Z,5.68
2023-04-18T12:40:43.485Z,6.13
2023-04-18T12:43:47.442Z,10.48
2023-04-18T12:46:49.984Z,5.50
2023-04-18T12:49:52.760Z,4.93
2023-04-18T12:52:58.703Z,6.82
2023-04-18T12:56:01.460Z,5.70
2023-04-18T12:59:05.791Z,6.50
2023-04-18T13:02:08.488Z,6.27
2023-04-18T13:05:12.407Z,4.75
2023-04-18T13:08:17.617Z,5.97
2023-04-18T13:11:22.586Z,6.27
2023-04-18T13:14:26.770Z,6.00
2023-04-18T13:17:29.609Z,5.20
2023-04-18T13:20:32.509Z,6.60
2023-04-18T13:23:35.439Z,6.03
2023-04-18T13:26:38.089Z,8.18
2023-04-18T13:29:43.470Z,5.20
2023-04-18T13:32:46.095Z,3.97
2023-04-18T13:35:48.823Z,4.47
2023-04-18T13:38:52.245Z,5.40
2023-04-18T13:45:00.033Z,4.22
2023-04-18T13:48:02.730Z,4.53
2023-04-18T13:51:07.072Z,5.47
2023-04-18T13:54:09.656Z,4.23
2023-04-18T13:57:12.496Z,5.97
2023-04-18T14:00:19.138Z,3.95
2023-04-18T14:03:21.979Z,5.30
2023-04-18T14:06:24.881Z,4.47
2023-04-18T14:09:27.878Z,5.22
2023-04-18T14:12:31.365Z,4.57
2023-04-18T14:15:36.145Z,7.00
2023-04-18T14:18:39.290Z,4.97
2023-04-18T14:21:41.963Z,8.20
2023-04-18T14:24:44.654Z,5.55
2023-04-18T14:27:48.782Z,4.70
2023-04-18T14:30:55.246Z,3.63
2023-04-18T14:33:58.061Z,4.30
2023-04-18T14:37:01.111Z,5.45
2023-04-18T14:40:05.458Z,4.15
2023-04-18T14:43:08.186Z,7.33
2023-04-18T14:46:17.150Z,6.03
2023-04-18T14:49:20.028Z,6.30
2023-04-18T14:52:22.672Z,4.80
2023-04-18T14:55:25.640Z,5.55
2023-04-18T14:58:28.224Z,5.45
2023-04-18T15:01:32.349Z,4.30
2023-04-18T15:04:35.126Z,3.63
2023-04-18T15:07:38.020Z,3.42
2023-04-18T15:10:42.683Z,3.85
2023-04-18T15:13:47.516Z,5.87
2023-04-18T15:16:52.068Z,3.23
2023-04-18T15:19:54.723Z,4.47
2023-04-18T15:22:57.731Z,3.88
2023-04-18T15:26:00.498Z,4.57
2023-04-18T15:29:03.859Z,4.03
2023-04-18T15:35:10.829Z,3.80
2023-04-18T15:38:14.382Z,3.88
2023-04-18T15:44:19.850Z,3.93
2023-04-18T15:47:24.140Z,6.57
2023-04-18T15:50:27.097Z,8.27
2023-04-18T15:53:29.799Z,4.20
2023-04-18T15:56:33.820Z,2.88
2023-04-18T15:59:37.126Z,3.63
2023-04-18T16:02:41.117Z,3.78
2023-04-18T16:05:43.883Z,3.30
2023-04-18T16:08:46.562Z,5.97
2023-04-18T16:11:49.394Z,3.40
2023-04-18T16:14:52.112Z,5.15
2023-04-18T16:17:56.250Z,6.18
2023-04-18T16:20:59.392Z,22.40
2023-04-18T16:24:02.207Z,4.95
2023-04-18T16:27:05.669Z,5.28
2023-04-18T16:30:10.123Z,5.65
2023-04-18T16:33:14.590Z,4.13
2023-04-18T16:36:17.315Z,5.00
2023-04-18T16:39:19.892Z,5.18
2023-04-18T16:42:22.612Z,5.97
2023-04-18T16:45:25.714Z,4.88
2023-04-18T16:48:30.147Z,7.70
2023-04-18T16:51:33.837Z,5.40
2023-04-18T16:54:36.953Z,6.00
2023-04-18T16:57:39.840Z,7.07
2023-04-18T17:00:42.720Z,6.20
2023-04-18T17:03:46.930Z,5.28
2023-04-18T17:06:51.880Z,5.23
2023-04-18T17:09:54.753Z,5.97
2023-04-18T17:12:57.484Z,7.47
2023-04-18T17:16:00.090Z,6.60
2023-04-18T17:19:03.959Z,5.90
2023-04-18T17:22:06.609Z,6.47
2023-04-18T17:25:10.254Z,5.35
2023-04-18T17:28:14.327Z,5.80
2023-04-18T17:31:17.214Z,7.23
2023-04-18T17:34:21.428Z,6.43
2023-04-18T17:37:24.314Z,8.77
2023-04-18T17:40:27.802Z,5.20
2023-04-18T17:43:30.952Z,6.43
2023-04-18T17:46:33.561Z,6.65
2023-04-18T17:49:37.476Z,5.57
2023-04-18T17:52:40.044Z,6.10
2023-04-18T17:55:42.542Z,7.20
2023-04-18T17:58:45.080Z,6.40
2023-04-18T18:01:47.673Z,6.97
2023-04-18T18:04:51.746Z,9.50
2023-04-18T18:07:56.204Z,7.20
2023-04-18T18:10:59.237Z,6.43
2023-04-18T18:14:02.022Z,7.90
2023-04-18T18:17:06.154Z,5.90
2023-04-18T18:20:11.649Z,9.57
2023-04-18T18:23:14.138Z,6.40
2023-04-18T18:26:16.655Z,8.00
2023-04-18T18:29:19.740Z,6.17
2023-04-18T18:32:22.652Z,8.95
2023-04-18T18:35:26.581Z,8.45
2023-04-18T18:38:29.131Z,7.83
2023-04-18T18:41:31.696Z,6.77
2023-04-18T18:44:34.426Z,8.83
2023-04-18T18:47:39.605Z,7.65
2023-04-18T18:50:43.992Z,6.73
2023-04-18T18:53:47.043Z,8.17
2023-04-18T18:56:49.621Z,7.68
2023-04-18T18:59:54.513Z,9.17
2023-04-18T19:02:58.338Z,10.13
2023-04-18T19:06:03.799Z,8.27
2023-04-18T19:09:07.435Z,8.83
2023-04-18T19:12:10.130Z,11.37
2023-04-18T19:15:13.088Z,10.63
2023-04-18T19:18:15.739Z,10.45
2023-04-18T19:21:20.178Z,9.70
2023-04-18T19:24:22.661Z,7.37
2023-04-18T19:27:25.201Z,7.03
2023-04-18T19:30:27.708Z,7.60
2023-04-18T19:33:30.307Z,6.57
2023-04-18T19:36:34.236Z,7.57
2023-04-18T19:39:36.730Z,7.93
2023-04-18T19:42:39.357Z,8.13
2023-04-18T19:45:41.898Z,8.18
2023-04-18T19:48:44.418Z,7.27
2023-04-18T19:51:48.889Z,10.23
2023-04-18T19:54:52.963Z,8.07
2023-04-18T19:57:56.569Z,8.70
2023-04-18T20:04:01.828Z,8.47
2023-04-18T20:07:06.407Z,7.43
2023-04-18T20:10:10.393Z,7.80
2023-04-18T20:13:13.039Z,9.23
2023-04-18T20:16:16.773Z,9.35
2023-04-18T20:19:19.495Z,7.50
2023-04-18T20:22:24.747Z,11.40
2023-04-18T20:25:27.371Z,9.07
2023-04-18T20:28:30.076Z,10.60
2023-04-18T20:31:32.713Z,7.25
2023-04-18T20:34:35.944Z,10.80
2023-04-18T20:37:41.458Z,9.35
2023-04-18T20:40:44.967Z,8.27
2023-04-18T20:46:50.378Z,7.90
2023-04-18T20:49:52.885Z,7.85
2023-04-18T20:52:56.714Z,9.53
2023-04-18T20:55:59.350Z,7.73
2023-04-18T20:59:01.840Z,10.50
2023-04-18T21:02:04.466Z,10.07
2023-04-18T21:05:07.678Z,12.93
2023-04-18T21:08:11.761Z,8.30
2023-04-18T21:11:14.327Z,8.93
2023-04-18T21:14:17.284Z,11.50
2023-04-18T21:17:20.125Z,8.15
2023-04-18T21:20:22.724Z,7.00
2023-04-18T21:23:26.647Z,6.93
2023-04-18T21:26:29.274Z,9.13
2023-04-18T21:29:31.875Z,11.90
2023-04-18T21:32:34.432Z,10.27
2023-04-18T21:35:37.047Z,8.43
2023-04-18T21:38:40.916Z,9.37
2023-04-18T21:41:43.456Z,7.50
2023-04-18T21:44:45.983Z,9.20
2023-04-18T21:47:51.211Z,9.20
2023-04-18T21:50:55.015Z,10.90
2023-04-18T21:53:59.036Z,8.27
2023-04-18T21:57:02.616Z,7.93
2023-04-18T22:03:11.273Z,8.80
2023-04-18T22:06:13.903Z,9.88
2023-04-18T22:09:19.271Z,9.20
2023-04-18T22:12:21.791Z,8.50
2023-04-18T22:15:26.796Z,8.23
2023-04-18T22:18:33.902Z,12.27
2023-04-18T22:21:36.781Z,10.77
2023-04-18T22:24:40.619Z,8.80
2023-04-18T22:27:43.554Z,9.07
2023-04-18T22:30:46.129Z,9.98
2023-04-18T22:33:48.702Z,9.83
2023-04-18T22:36:51.287Z,9.37
2023-04-18T22:39:55.227Z,8.87
2023-04-18T22:42:57.847Z,9.27
2023-04-18T22:46:00.699Z,11.52
2023-04-18T22:49:03.305Z,10.02
2023-04-18T22:52:06.196Z,10.57
2023-04-18T22:55:11.008Z,11.23
2023-04-18T22:58:13.716Z,9.70
2023-04-18T23:01:16.400Z,8.73
2023-04-18T23:04:19.516Z,10.67
2023-04-18T23:07:22.434Z,10.95
2023-04-18T23:10:26.424Z,9.10
2023-04-18T23:13:29.025Z,10.37
2023-04-18T23:16:32.422Z,12.33
2023-04-18T23:19:35.008Z,11.32
2023-04-18T23:22:38.450Z,11.10
2023-04-18T23:25:42.285Z,11.35
2023-04-18T23:28:44.942Z,12.20
2023-04-18T23:31:47.597Z,11.55
2023-04-18T23:34:50.234Z,9.63
2023-04-18T23:37:52.853Z,10.07
2023-04-18T23:40:56.702Z,9.57
2023-04-18T23:44:00.082Z,12.27
2023-04-18T23:47:02.682Z,11.45
2023-04-18T23:50:06.073Z,11.63
2023-04-18T23:53:08.610Z,10.60
2023-04-18T23:56:12.479Z,9.53
2023-04-18T23:59:15.031Z,13.87
